createdAt,value
2023-05-03T00:00:27.788Z,11.52
2023-05-03T00:03:17.641Z,11.53
2023-05-03T00:05:54.131Z,11.52
2023-05-03T00:08:24.626Z,11.51
2023-05-03T00:11:01.820Z,11.51
2023-05-03T00:13:32.286Z,11.51
2023-05-03T00:16:02.932Z,11.52
2023-05-03T00:18:33.421Z,11.51
2023-05-03T00:21:03.876Z,11.48
2023-05-03T00:23:34.459Z,11.47
2023-05-03T00:26:04.935Z,11.45
2023-05-03T00:28:35.485Z,11.43
2023-05-03T00:31:12.562Z,11.40
2023-05-03T00:33:43.214Z,11.37
2023-05-03T00:36:14.907Z,11.38
2023-05-03T00:38:45.506Z,11.36
2023-05-03T00:41:16.060Z,11.34
2023-05-03T00:43:46.739Z,11.34
2023-05-03T00:46:17.869Z,11.31
2023-05-03T00:48:49.262Z,11.29
2023-05-03T00:51:20.407Z,11.25
2023-05-03T00:53:51.627Z,11.20
2023-05-03T00:56:23.007Z,11.17
2023-05-03T00:58:53.759Z,11.14
2023-05-03T01:01:24.527Z,11.12
2023-05-03T01:03:55.466Z,11.09
2023-05-03T01:06:37.698Z,11.06
2023-05-03T01:09:12.851Z,11.02
2023-05-03T01:11:48.908Z,10.98
2023-05-03T01:14:24.148Z,10.93
2023-05-03T01:16:57.348Z,10.91
2023-05-03T01:19:30.091Z,10.91
2023-05-03T01:22:05.333Z,10.90
2023-05-03T01:24:38.820Z,10.86
2023-05-03T01:27:09.822Z,10.83
2023-05-03T01:29:40.444Z,10.79
2023-05-03T01:32:16.185Z,10.75
2023-05-03T01:34:52.250Z,10.71
2023-05-03T01:37:22.812Z,10.68
2023-05-03T01:39:55.841Z,10.64
2023-05-03T01:42:27.603Z,10.59
2023-05-03T01:44:58.424Z,10.57
2023-05-03T01:47:28.977Z,10.54
2023-05-03T01:49:59.483Z,10.48
2023-05-03T01:52:30.431Z,10.41
2023-05-03T01:55:00.977Z,10.36
2023-05-03T01:57:31.498Z,10.35
2023-05-03T02:00:02.307Z,10.32
2023-05-03T02:02:43.130Z,10.25
2023-05-03T02:05:13.876Z,10.21
2023-05-03T02:07:44.464Z,10.17
2023-05-03T02:10:16.410Z,10.13
2023-05-03T02:12:47.000Z,10.12
2023-05-03T02:15:20.385Z,10.06
2023-05-03T02:17:51.064Z,10.04
2023-05-03T02:20:21.732Z,10.01
2023-05-03T02:22:52.289Z,9.97
2023-05-03T02:25:22.960Z,9.94
2023-05-03T02:27:53.484Z,9.89
2023-05-03T02:30:24.205Z,9.86
2023-05-03T02:32:54.907Z,9.82
2023-05-03T02:35:26.314Z,9.78
2023-05-03T02:37:57.510Z,9.76
2023-05-03T02:40:28.586Z,9.73
2023-05-03T02:42:59.632Z,9.71
2023-05-03T02:45:31.006Z,9.69
2023-05-03T02:48:01.655Z,9.64
2023-05-03T02:50:32.357Z,9.57
2023-05-03T02:53:04.369Z,9.52
2023-05-03T02:55:35.544Z,9.46
2023-05-03T02:58:06.584Z,9.42
2023-05-03T03:00:37.258Z,9.35
2023-05-03T03:03:08.096Z,9.33
2023-05-03T03:05:38.753Z,9.32
2023-05-03T03:08:09.281Z,9.33
2023-05-03T03:10:40.129Z,9.30
2023-05-03T03:13:11.229Z,9.25
2023-05-03T03:15:41.935Z,9.22
2023-05-03T03:18:12.621Z,9.17
2023-05-03T03:20:44.248Z,9.14
2023-05-03T03:23:15.192Z,9.14
2023-05-03T03:25:45.995Z,9.17
2023-05-03T03:28:16.884Z,9.19
2023-05-03T03:30:48.836Z,9.22
2023-05-03T03:33:24.535Z,9.20
2023-05-03T03:35:56.046Z,9.19
2023-05-03T03:38:26.827Z,9.17
2023-05-03T03:41:00.322Z,9.15
2023-05-03T03:43:31.343Z,9.15
2023-05-03T03:46:02.192Z,9.15
2023-05-03T03:48:32.812Z,9.16
2023-05-03T03:51:03.710Z,9.17
2023-05-03T03:53:38.001Z,9.18
2023-05-03T03:56:09.277Z,9.19
2023-05-03T03:58:39.948Z,9.17
2023-05-03T04:01:12.316Z,9.17
2023-05-03T04:03:43.042Z,9.18
2023-05-03T04:06:14.225Z,9.16
2023-05-03T04:08:44.995Z,9.16
2023-05-03T04:11:15.729Z,9.17
2023-05-03T04:13:51.417Z,9.18
2023-05-03T04:16:22.270Z,9.19
2023-05-03T04:18:53.116Z,9.20
2023-05-03T04:21:23.660Z,9.21
2023-05-03T04:23:54.593Z,9.21
2023-05-03T04:26:31.955Z,9.19
2023-05-03T04:29:10.000Z,9.21
2023-05-03T04:31:42.299Z,9.21
2023-05-03T04:34:15.080Z,9.23
2023-05-03T04:36:47.444Z,9.22
2023-05-03T04:39:18.940Z,9.22
2023-05-03T04:41:50.208Z,9.21
2023-05-03T04:44:21.329Z,9.16
2023-05-03T04:46:52.825Z,9.15
2023-05-03T04:49:23.315Z,9.12
2023-05-03T04:51:55.758Z,9.12
2023-05-03T04:54:27.814Z,9.14
2023-05-03T04:56:58.846Z,9.16
2023-05-03T04:59:29.651Z,9.20
2023-05-03T05:02:00.888Z,9.25
2023-05-03T05:04:31.716Z,9.26
2023-05-03T05:07:02.217Z,9.31
2023-05-03T05:09:33.688Z,9.34
2023-05-03T05:12:05.989Z,9.40
2023-05-03T05:14:39.912Z,9.48
2023-05-03T05:17:11.682Z,9.57
2023-05-03T05:19:42.376Z,9.65
2023-05-03T05:22:13.379Z,9.76
2023-05-03T05:24:48.394Z,9.86
2023-05-03T05:27:19.713Z,9.96
2023-05-03T05:29:51.405Z,10.06
2023-05-03T05:32:22.520Z,10.16
2023-05-03T05:34:55.538Z,10.26
2023-05-03T05:37:27.567Z,10.37
2023-05-03T05:40:00.082Z,10.48
2023-05-03T05:42:31.872Z,10.61
2023-05-03T05:45:02.502Z,10.75
2023-05-03T05:47:33.116Z,10.88
2023-05-03T05:50:09.607Z,10.98
2023-05-03T05:52:46.385Z,11.09
2023-05-03T05:55:17.247Z,11.20
2023-05-03T05:57:48.707Z,11.30
2023-05-03T06:00:21.627Z,11.38
2023-05-03T06:02:52.513Z,11.43
2023-05-03T06:05:25.690Z,11.48
2023-05-03T06:07:57.502Z,11.55
2023-05-03T06:10:28.014Z,11.63
2023-05-03T06:13:00.444Z,11.73
2023-05-03T06:15:31.639Z,11.81
2023-05-03T06:18:03.025Z,11.85
2023-05-03T06:20:33.705Z,11.89
2023-05-03T06:23:05.017Z,11.93
2023-05-03T06:25:37.255Z,11.93
2023-05-03T06:28:08.299Z,11.93
2023-05-03T06:30:39.578Z,11.92
2023-05-03T06:33:14.103Z,11.92
2023-05-03T06:35:47.384Z,11.95
2023-05-03T06:38:19.450Z,12.02
2023-05-03T06:40:50.523Z,12.11
2023-05-03T06:43:21.551Z,12.25
2023-05-03T06:45:58.408Z,12.39
2023-05-03T06:48:29.078Z,12.51
2023-05-03T06:50:59.776Z,12.64
2023-05-03T06:53:30.293Z,12.77
2023-05-03T06:56:00.861Z,12.88
2023-05-03T06:58:31.430Z,12.99
2023-05-03T07:01:02.930Z,13.13
2023-05-03T07:03:33.506Z,13.27
2023-05-03T07:06:04.397Z,13.37
2023-05-03T07:08:35.134Z,13.45
2023-05-03T07:11:05.600Z,13.52
2023-05-03T07:13:36.184Z,13.60
2023-05-03T07:16:07.435Z,13.67
2023-05-03T07:18:37.958Z,13.78
2023-05-03T07:21:09.431Z,13.88
2023-05-03T07:23:40.268Z,13.93
2023-05-03T07:26:12.104Z,13.99
2023-05-03T07:28:42.652Z,14.12
2023-05-03T07:31:13.393Z,14.25
2023-05-03T07:33:44.112Z,14.37
2023-05-03T07:36:14.634Z,14.49
2023-05-03T07:38:45.281Z,14.58
2023-05-03T07:41:15.882Z,14.65
2023-05-03T07:43:49.452Z,14.72
2023-05-03T07:46:19.928Z,14.82
2023-05-03T07:48:50.563Z,14.91
2023-05-03T07:51:21.235Z,15.00
2023-05-03T07:53:51.725Z,15.10
2023-05-03T07:56:22.665Z,15.19
2023-05-03T07:59:00.883Z,15.25
2023-05-03T08:01:40.080Z,15.32
2023-05-03T08:04:10.907Z,15.29
2023-05-03T08:06:42.846Z,15.27
2023-05-03T08:09:14.101Z,15.32
2023-05-03T08:11:44.688Z,15.39
2023-05-03T08:14:15.194Z,15.48
2023-05-03T08:16:45.761Z,15.56
2023-05-03T08:19:16.373Z,15.68
2023-05-03T08:21:48.416Z,15.70
2023-05-03T08:24:18.974Z,15.63
2023-05-03T08:26:49.524Z,15.58
2023-05-03T08:29:20.095Z,15.60
2023-05-03T08:31:50.723Z,15.69
2023-05-03T08:34:21.354Z,15.78
2023-05-03T08:36:52.101Z,15.85
2023-05-03T08:39:22.629Z,15.89
2023-05-03T08:41:53.064Z,15.95
2023-05-03T08:44:24.393Z,15.98
2023-05-03T08:46:54.917Z,16.02
2023-05-03T08:49:25.480Z,16.08
2023-05-03T08:51:56.768Z,16.14
2023-05-03T08:54:27.440Z,16.25
2023-05-03T08:56:57.959Z,16.36
2023-05-03T08:59:29.692Z,16.46
2023-05-03T09:02:00.406Z,16.59
2023-05-03T09:04:35.144Z,16.75
2023-05-03T09:07:12.320Z,16.84
2023-05-03T09:09:44.988Z,16.91
2023-05-03T09:12:33.970Z,16.98
2023-05-03T09:15:06.566Z,17.11
2023-05-03T09:17:37.097Z,17.22
2023-05-03T09:20:10.133Z,17.30
2023-05-03T09:22:51.805Z,17.33
2023-05-03T09:25:22.349Z,17.39
2023-05-03T09:28:03.018Z,17.50
2023-05-03T09:30:33.774Z,17.58
2023-05-03T09:33:04.700Z,17.62
2023-05-03T09:35:35.495Z,17.66
2023-05-03T09:38:06.287Z,17.75
2023-05-03T09:40:47.037Z,17.82
2023-05-03T09:43:19.545Z,17.85
2023-05-03T09:45:50.830Z,17.97
2023-05-03T09:48:23.859Z,18.00
2023-05-03T09:50:54.539Z,18.01
2023-05-03T09:53:29.097Z,17.96
2023-05-03T09:56:00.818Z,17.88
2023-05-03T09:58:32.022Z,17.70
2023-05-03T10:01:02.620Z,17.57
2023-05-03T10:03:36.130Z,17.47
2023-05-03T10:06:09.769Z,17.26
2023-05-03T10:08:41.908Z,17.11
2023-05-03T10:11:15.070Z,17.17
2023-05-03T10:13:45.930Z,17.31
2023-05-03T10:16:21.518Z,17.45
2023-05-03T10:18:55.161Z,17.61
2023-05-03T10:21:33.938Z,17.65
2023-05-03T10:24:12.728Z,17.58
2023-05-03T10:26:43.513Z,17.43
2023-05-03T10:29:31.282Z,17.22
2023-05-03T10:32:02.136Z,17.10
2023-05-03T10:34:33.617Z,17.16
2023-05-03T10:37:04.808Z,17.31
2023-05-03T10:39:35.543Z,17.51
2023-05-03T10:42:09.464Z,17.66
2023-05-03T10:44:41.889Z,17.64
2023-05-03T10:47:14.123Z,17.53
2023-05-03T10:49:44.910Z,17.47
2023-05-03T10:52:28.954Z,17.57
2023-05-03T10:54:59.502Z,17.59
2023-05-03T10:57:32.697Z,17.53
2023-05-03T11:00:08.102Z,17.50
2023-05-03T11:02:40.649Z,17.48
2023-05-03T11:05:13.785Z,17.53
2023-05-03T11:07:44.452Z,17.68
2023-05-03T11:10:19.275Z,17.81
2023-05-03T11:12:51.056Z,17.92
2023-05-03T11:15:22.200Z,18.04
2023-05-03T11:17:52.909Z,18.22
2023-05-03T11:20:23.621Z,18.37
2023-05-03T11:22:54.485Z,18.43
2023-05-03T11:25:25.061Z,18.50
2023-05-03T11:27:55.552Z,18.45
2023-05-03T11:30:26.994Z,18.35
2023-05-03T11:32:57.754Z,18.19
2023-05-03T11:35:29.894Z,18.11
2023-05-03T11:38:00.514Z,18.07
2023-05-03T11:40:31.676Z,18.13
2023-05-03T11:43:02.272Z,18.30
2023-05-03T11:45:34.078Z,18.48
2023-05-03T11:48:05.130Z,18.64
2023-05-03T11:50:54.474Z,18.73
2023-05-03T11:53:25.866Z,18.81
2023-05-03T11:55:56.567Z,18.91
2023-05-03T11:58:27.645Z,19.01
2023-05-03T12:00:58.461Z,19.12
2023-05-03T12:03:32.260Z,19.23
2023-05-03T12:06:04.816Z,19.25
2023-05-03T12:08:38.262Z,19.29
2023-05-03T12:11:10.637Z,19.28
2023-05-03T12:13:42.452Z,19.24
2023-05-03T12:16:19.341Z,19.26
2023-05-03T12:18:51.935Z,19.23
2023-05-03T12:23:57.901Z,19.19
2023-05-03T12:26:28.626Z,19.26
2023-05-03T12:29:00.608Z,19.32
2023-05-03T12:31:34.755Z,19.37
2023-05-03T12:34:30.941Z,19.38
2023-05-03T12:37:01.085Z,19.29
2023-05-03T12:39:39.184Z,19.28
2023-05-03T12:42:12.662Z,19.21
2023-05-03T12:44:48.151Z,19.04
2023-05-03T12:47:28.087Z,18.83
2023-05-03T12:50:00.004Z,18.57
2023-05-03T12:52:37.354Z,18.48
2023-05-03T12:55:11.618Z,18.46
2023-05-03T12:57:45.845Z,18.48
2023-05-03T13:00:24.979Z,18.46
2023-05-03T13:05:35.044Z,18.15
2023-05-03T13:08:09.684Z,17.93
2023-05-03T13:10:41.905Z,17.73
2023-05-03T13:13:12.544Z,17.67
2023-05-03T13:15:43.833Z,17.71
2023-05-03T13:18:14.977Z,17.81
2023-05-03T13:20:45.616Z,17.89
2023-05-03T13:23:16.177Z,17.94
2023-05-03T13:25:47.307Z,17.95
2023-05-03T13:28:23.702Z,17.95
2023-05-03T13:30:54.361Z,17.98
2023-05-03T13:33:24.841Z,17.98
2023-05-03T13:35:55.689Z,17.99
2023-05-03T13:38:26.175Z,18.00
2023-05-03T13:40:56.584Z,18.03
2023-05-03T13:43:27.409Z,18.01
2023-05-03T13:46:02.721Z,18.04
2023-05-03T13:48:33.382Z,18.06
2023-05-03T13:51:08.740Z,18.03
2023-05-03T13:53:39.506Z,18.02
2023-05-03T13:56:10.270Z,18.01
2023-05-03T13:58:41.270Z,17.92
2023-05-03T14:01:12.665Z,17.86
2023-05-03T14:03:44.209Z,17.78
2023-05-03T14:06:14.925Z,17.72
2023-05-03T14:08:45.561Z,17.69
2023-05-03T14:11:16.207Z,17.69
2023-05-03T14:13:56.441Z,17.69
2023-05-03T14:19:01.711Z,17.64
2023-05-03T14:21:32.971Z,17.59
2023-05-03T14:24:03.644Z,17.50
2023-05-03T14:26:34.813Z,17.43
2023-05-03T14:29:05.981Z,17.36
2023-05-03T14:31:36.987Z,17.26
2023-05-03T14:34:07.691Z,17.18
2023-05-03T14:36:43.676Z,17.10
2023-05-03T14:39:16.468Z,17.02
2023-05-03T14:41:48.165Z,16.99
2023-05-03T14:44:18.737Z,17.01
2023-05-03T14:46:49.377Z,17.01
2023-05-03T14:49:20.226Z,17.01
2023-05-03T14:51:50.770Z,17.04
2023-05-03T14:54:23.166Z,17.04
2023-05-03T14:56:54.564Z,17.03
2023-05-03T14:59:25.118Z,17.05
2023-05-03T15:01:55.697Z,17.03
2023-05-03T15:04:26.416Z,17.02
2023-05-03T15:07:00.647Z,16.99
2023-05-03T15:09:31.868Z,16.93
2023-05-03T15:12:04.063Z,16.86
2023-05-03T15:14:34.769Z,16.79
2023-05-03T15:17:05.729Z,16.72
2023-05-03T15:19:36.520Z,16.66
2023-05-03T15:22:06.990Z,16.59
2023-05-03T15:24:37.543Z,16.54
2023-05-03T15:27:08.103Z,16.53
2023-05-03T15:29:38.662Z,16.55
2023-05-03T15:32:09.225Z,16.56
2023-05-03T15:34:39.702Z,16.56
2023-05-03T15:37:12.469Z,16.54
2023-05-03T15:39:42.955Z,16.54
2023-05-03T15:42:13.489Z,16.50
2023-05-03T15:44:46.978Z,16.45
2023-05-03T15:47:17.538Z,16.46
2023-05-03T15:49:47.924Z,16.42
2023-05-03T15:52:18.498Z,16.30
2023-05-03T15:54:49.006Z,16.25
2023-05-03T15:57:19.793Z,16.24
2023-05-03T15:59:50.688Z,16.19
2023-05-03T16:02:21.533Z,16.15
2023-05-03T16:04:52.137Z,16.11
2023-05-03T16:07:22.676Z,16.07
2023-05-03T16:09:53.188Z,16.02
2023-05-03T16:12:24.512Z,15.99
2023-05-03T16:14:55.713Z,15.96
2023-05-03T16:17:26.347Z,15.92
2023-05-03T16:19:56.967Z,15.88
2023-05-03T16:22:27.980Z,15.84
2023-05-03T16:24:58.505Z,15.81
2023-05-03T16:27:29.125Z,15.77
2023-05-03T16:30:00.559Z,15.74
2023-05-03T16:32:31.222Z,15.70
2023-05-03T16:35:03.378Z,15.69
2023-05-03T16:37:36.258Z,15.67
2023-05-03T16:40:10.565Z,15.65
2023-05-03T16:42:42.622Z,15.63
2023-05-03T16:45:15.957Z,15.60
2023-05-03T16:47:47.489Z,15.57
2023-05-03T16:50:18.068Z,15.53
2023-05-03T16:52:48.596Z,15.48
2023-05-03T16:55:22.535Z,15.43
2023-05-03T16:57:53.115Z,15.39
2023-05-03T17:00:23.716Z,15.35
2023-05-03T17:02:54.573Z,15.31
2023-05-03T17:05:32.732Z,15.26
2023-05-03T17:08:04.187Z,15.21
2023-05-03T17:10:36.199Z,15.16
2023-05-03T17:13:09.372Z,15.12
2023-05-03T17:15:40.060Z,15.08
2023-05-03T17:18:10.618Z,15.04
2023-05-03T17:20:41.151Z,14.99
2023-05-03T17:23:11.669Z,14.94
2023-05-03T17:25:42.724Z,14.89
2023-05-03T17:28:13.357Z,14.82
2023-05-03T17:30:43.889Z,14.78
2023-05-03T17:33:15.568Z,14.74
2023-05-03T17:35:46.577Z,14.70
2023-05-03T17:38:17.135Z,14.67
2023-05-03T17:40:47.752Z,14.62
2023-05-03T17:43:18.434Z,14.59
2023-05-03T17:45:49.008Z,14.57
2023-05-03T17:48:20.428Z,14.56
2023-05-03T17:50:58.280Z,14.51
2023-05-03T17:53:29.111Z,14.47
2023-05-03T17:55:59.659Z,14.44
2023-05-03T17:58:30.263Z,14.39
2023-05-03T18:01:00.800Z,14.36
2023-05-03T18:03:34.093Z,14.32
2023-05-03T18:06:05.053Z,14.26
2023-05-03T18:08:35.700Z,14.21
2023-05-03T18:11:06.295Z,14.18
2023-05-03T18:13:37.064Z,14.13
2023-05-03T18:16:08.804Z,14.11
2023-05-03T18:18:39.538Z,14.07
2023-05-03T18:21:11.408Z,14.04
2023-05-03T18:23:43.150Z,13.99
2023-05-03T18:26:15.172Z,13.96
2023-05-03T18:28:45.758Z,13.92
2023-05-03T18:31:16.401Z,13.88
2023-05-03T18:33:47.093Z,13.85
2023-05-03T18:36:18.052Z,13.81
2023-05-03T18:38:48.789Z,13.76
2023-05-03T18:41:20.185Z,13.72
2023-05-03T18:43:52.142Z,13.71
2023-05-03T18:46:22.865Z,13.71
2023-05-03T18:48:54.420Z,13.71
2023-05-03T18:51:25.129Z,13.69
2023-05-03T18:53:55.602Z,13.68
2023-05-03T18:56:26.228Z,13.66
2023-05-03T18:58:56.849Z,13.64
2023-05-03T19:01:27.649Z,13.63
2023-05-03T19:03:58.394Z,13.62
2023-05-03T19:06:29.176Z,13.60
2023-05-03T19:08:59.803Z,13.57
2023-05-03T19:11:30.291Z,13.53
2023-05-03T19:14:01.756Z,13.51
2023-05-03T19:16:33.293Z,13.48
2023-05-03T19:19:04.092Z,13.45
2023-05-03T19:21:37.811Z,13.40
2023-05-03T19:24:13.094Z,13.36
2023-05-03T19:26:43.744Z,13.34
2023-05-03T19:29:14.289Z,13.30
2023-05-03T19:31:44.860Z,13.26
2023-05-03T19:34:15.461Z,13.22
2023-05-03T19:36:46.043Z,13.18
2023-05-03T19:39:16.739Z,13.15
2023-05-03T19:41:47.713Z,13.13
2023-05-03T19:44:18.347Z,13.10
2023-05-03T19:46:49.839Z,13.07
2023-05-03T19:49:20.435Z,13.05
2023-05-03T19:51:53.835Z,13.04
2023-05-03T19:54:24.543Z,13.03
2023-05-03T19:56:55.634Z,13.01
2023-05-03T19:59:26.546Z,12.99
2023-05-03T20:01:57.418Z,12.97
2023-05-03T20:04:28.103Z,12.94
2023-05-03T20:06:58.808Z,12.91
2023-05-03T20:09:29.430Z,12.86
2023-05-03T20:12:00.024Z,12.82
2023-05-03T20:14:30.627Z,12.78
2023-05-03T20:17:01.651Z,12.73
2023-05-03T20:19:32.252Z,12.70
2023-05-03T20:22:02.764Z,12.68
2023-05-03T20:24:33.355Z,12.67
2023-05-03T20:27:04.253Z,12.63
2023-05-03T20:29:34.830Z,12.57
2023-05-03T20:32:05.522Z,12.52
2023-05-03T20:34:36.552Z,12.49
2023-05-03T20:37:07.148Z,12.45
2023-05-03T20:39:37.936Z,12.42
2023-05-03T20:42:08.746Z,12.40
2023-05-03T20:44:39.528Z,12.39
2023-05-03T20:47:10.081Z,12.36
2023-05-03T20:49:40.769Z,12.35
2023-05-03T20:52:11.325Z,12.33
2023-05-03T20:54:44.430Z,12.30
2023-05-03T20:57:16.885Z,12.27
2023-05-03T20:59:47.469Z,12.23
2023-05-03T21:02:18.002Z,12.19
2023-05-03T21:04:48.973Z,12.14
2023-05-03T21:07:19.581Z,12.11
2023-05-03T21:09:50.157Z,12.08
2023-05-03T21:12:20.812Z,12.05
2023-05-03T21:14:51.436Z,12.00
2023-05-03T21:17:22.012Z,11.97
2023-05-03T21:19:52.638Z,11.91
2023-05-03T21:22:23.153Z,11.87
2023-05-03T21:24:53.827Z,11.84
2023-05-03T21:27:24.469Z,11.82
2023-05-03T21:29:55.123Z,11.80
2023-05-03T21:32:25.749Z,11.77
2023-05-03T21:34:56.417Z,11.72
2023-05-03T21:37:27.006Z,11.67
2023-05-03T21:40:05.449Z,11.63
2023-05-03T21:42:36.085Z,11.61
2023-05-03T21:45:09.475Z,11.61
2023-05-03T21:47:40.135Z,11.62
2023-05-03T21:50:11.012Z,11.63
2023-05-03T21:52:42.132Z,11.62
2023-05-03T21:55:13.107Z,11.62
2023-05-03T21:57:43.692Z,11.63
2023-05-03T22:00:20.005Z,11.65
2023-05-03T22:02:50.964Z,11.64
2023-05-03T22:05:21.754Z,11.63
2023-05-03T22:07:52.285Z,11.61
2023-05-03T22:10:23.009Z,11.61
2023-05-03T22:12:54.531Z,11.60
2023-05-03T22:15:25.163Z,11.59
2023-05-03T22:17:55.953Z,11.57
2023-05-03T22:20:28.884Z,11.57
2023-05-03T22:22:59.436Z,11.55
2023-05-03T22:25:32.081Z,11.56
2023-05-03T22:28:03.080Z,11.54
2023-05-03T22:30:33.642Z,11.51
2023-05-03T22:33:04.417Z,11.48
2023-05-03T22:35:35.418Z,11.45
2023-05-03T22:38:06.539Z,11.40
2023-05-03T22:40:37.152Z,11.37
2023-05-03T22:43:07.783Z,11.37
2023-05-03T22:45:38.758Z,11.35
2023-05-03T22:48:09.483Z,11.36
2023-05-03T22:50:40.273Z,11.36
2023-05-03T22:53:10.794Z,11.37
2023-05-03T22:55:41.576Z,11.36
2023-05-03T22:58:12.113Z,11.35
2023-05-03T23:00:43.134Z,11.34
2023-05-03T23:03:13.886Z,11.32
2023-05-03T23:05:44.664Z,11.32
2023-05-03T23:08:15.923Z,11.30
2023-05-03T23:10:46.642Z,11.28
2023-05-03T23:13:17.276Z,11.29
2023-05-03T23:15:47.997Z,11.31
2023-05-03T23:18:18.733Z,11.32
2023-05-03T23:20:50.320Z,11.31
2023-05-03T23:23:21.073Z,11.27
2023-05-03T23:25:52.397Z,11.24
2023-05-03T23:28:23.700Z,11.22
2023-05-03T23:30:54.772Z,11.19
2023-05-03T23:33:26.296Z,11.16
2023-05-03T23:35:57.471Z,11.14
2023-05-03T23:38:28.163Z,11.13
2023-05-03T23:40:58.948Z,11.12
2023-05-03T23:43:29.462Z,11.08
2023-05-03T23:46:00.186Z,11.06
2023-05-03T23:48:31.566Z,11.03
2023-05-03T23:51:02.108Z,11.01
2023-05-03T23:53:32.605Z,10.99
2023-05-03T23:56:03.655Z,10.95
2023-05-03T23:58:34.216Z,10.93
